Lefroy, Canada
Current Conditions -  °F | °C
As of 4:58 PM on Thursday 27 Nov 2014 (Local Time) from CYBN Reporting Station
Light Snow Light Snow  
Wind Chill: 28°   Ceiling: 400
Heat Index: 28°   Visibility: 0.75mi
Dew Point: 27°   Wind: 2mph
Humidity: 93%   Direction: 340°NNW
Pressure: 30.07"   Gusts: NA
Location:  44.27°N, 79.55°W
Report Text: CYBN 272158Z AUTO 34002KT 3/4SM -SN VV004 M02/M03 A3007
Loading
Personal Weather Stations






























Interactive Weather Map New forecast layout! Learn more

10-Day Weather Forecast

Advertisements
Track Severe Weather on mobile